createdAt,value
2019-02-07T00:01:08.573Z,31.00
2019-02-07T00:03:34.618Z,31.10
2019-02-07T00:06:00.991Z,31.00
2019-02-07T00:08:26.932Z,31.00
2019-02-07T00:10:52.878Z,31.00
2019-02-07T00:13:18.937Z,31.00
2019-02-07T00:15:44.906Z,31.10
2019-02-07T00:18:10.955Z,31.20
2019-02-07T00:20:37.066Z,31.10
2019-02-07T00:23:03.115Z,31.10
2019-02-07T00:25:29.443Z,31.00
2019-02-07T00:27:55.421Z,31.00
2019-02-07T00:30:21.476Z,30.90
2019-02-07T00:32:47.407Z,30.70
2019-02-07T00:35:13.358Z,30.60
2019-02-07T00:37:39.448Z,30.50
2019-02-07T00:40:05.502Z,30.70
2019-02-07T00:42:31.546Z,30.60
2019-02-07T00:44:57.986Z,30.70
2019-02-07T00:47:23.956Z,30.80
2019-02-07T00:49:49.899Z,30.80
2019-02-07T00:52:15.875Z,30.80
2019-02-07T00:54:41.907Z,30.90
2019-02-07T00:57:07.863Z,31.00
2019-02-07T00:59:33.920Z,30.90
2019-02-07T01:01:59.986Z,30.90
2019-02-07T01:04:25.940Z,30.90
2019-02-07T01:06:52.614Z,30.90
2019-02-07T01:09:18.567Z,30.80
2019-02-07T01:11:44.527Z,31.10
2019-02-07T01:14:10.511Z,30.80
2019-02-07T01:16:36.553Z,30.80
2019-02-07T01:19:02.592Z,30.90
2019-02-07T01:21:28.661Z,31.00
2019-02-07T01:23:54.726Z,30.80
2019-02-07T01:26:21.062Z,30.80
2019-02-07T01:28:47.031Z,30.80
2019-02-07T01:31:12.969Z,30.80
2019-02-07T01:33:38.963Z,30.70
2019-02-07T01:36:05.018Z,30.70
2019-02-07T01:38:31.084Z,30.70
2019-02-07T01:40:57.062Z,30.70
2019-02-07T01:43:23.097Z,30.70
2019-02-07T01:45:49.083Z,30.70
2019-02-07T01:48:15.145Z,30.80
2019-02-07T01:50:41.093Z,30.80
2019-02-07T01:53:07.126Z,30.90
2019-02-07T01:55:33.289Z,30.90
2019-02-07T01:57:59.250Z,30.70
2019-02-07T02:00:25.293Z,30.90
2019-02-07T02:02:51.547Z,30.90
2019-02-07T02:05:17.611Z,31.10
2019-02-07T02:07:44.083Z,31.00
2019-02-07T02:10:10.127Z,31.10
2019-02-07T02:12:36.097Z,31.10
2019-02-07T02:15:02.157Z,31.20
2019-02-07T02:17:28.227Z,31.10
2019-02-07T02:19:54.194Z,31.70
2019-02-07T02:22:20.273Z,30.70
2019-02-07T02:24:46.308Z,30.60
2019-02-07T02:27:12.666Z,30.60
2019-02-07T02:29:38.704Z,30.50
2019-02-07T02:32:04.654Z,30.40
2019-02-07T02:34:30.711Z,30.50
2019-02-07T02:36:57.414Z,30.40
2019-02-07T02:39:23.352Z,31.10
2019-02-07T02:41:49.294Z,30.40
2019-02-07T02:44:15.388Z,30.90
2019-02-07T02:46:42.135Z,30.30
2019-02-07T02:49:08.591Z,30.20
2019-02-07T02:51:34.535Z,30.20
2019-02-07T02:54:01.401Z,30.30
2019-02-07T02:56:27.459Z,30.00
2019-02-07T02:58:53.501Z,30.30
2019-02-07T03:01:30.309Z,30.90
2019-02-07T03:04:13.053Z,30.40
2019-02-07T03:06:41.692Z,30.40
2019-02-07T03:09:09.634Z,30.50
2019-02-07T03:11:37.605Z,30.50
2019-02-07T03:14:23.754Z,30.50
2019-02-07T03:16:54.409Z,30.50
2019-02-07T03:19:31.437Z,30.40
2019-02-07T03:22:11.666Z,30.50
2019-02-07T03:24:56.581Z,30.40
2019-02-07T03:27:24.577Z,30.40
2019-02-07T03:30:09.403Z,30.40
2019-02-07T03:32:40.124Z,30.50
2019-02-07T03:35:11.303Z,30.40
2019-02-07T03:37:39.277Z,30.50
2019-02-07T03:40:07.206Z,30.60
2019-02-07T03:42:38.303Z,30.50
2019-02-07T03:45:18.699Z,30.60
2019-02-07T03:47:52.652Z,30.70
2019-02-07T03:50:26.613Z,30.60
2019-02-07T03:53:09.827Z,30.80
2019-02-07T03:55:52.893Z,30.60
2019-02-07T03:58:29.944Z,30.70
2019-02-07T04:01:00.945Z,30.80
2019-02-07T04:03:34.876Z,30.80
2019-02-07T04:06:20.414Z,30.80
2019-02-07T04:08:48.444Z,30.70
2019-02-07T04:11:28.595Z,30.70
2019-02-07T04:14:02.356Z,30.70
2019-02-07T04:16:33.786Z,30.60
2019-02-07T04:19:01.737Z,30.50
2019-02-07T04:21:32.663Z,30.40
2019-02-07T04:24:09.937Z,30.40
2019-02-07T04:26:41.398Z,30.40
2019-02-07T04:29:15.602Z,29.40
2019-02-07T04:31:58.900Z,30.40
2019-02-07T04:34:26.743Z,30.30
2019-02-07T04:37:11.472Z,30.40
2019-02-07T04:39:56.303Z,30.40
2019-02-07T04:42:26.950Z,30.30
2019-02-07T04:44:54.911Z,30.20
2019-02-07T04:47:39.394Z,30.40
2019-02-07T04:50:07.256Z,30.40
2019-02-07T04:52:50.443Z,30.40
2019-02-07T04:55:21.379Z,30.40
2019-02-07T04:57:55.633Z,30.20
2019-02-07T05:00:40.485Z,30.20
2019-02-07T05:03:17.545Z,30.20
2019-02-07T05:05:51.228Z,30.30
2019-02-07T05:08:37.510Z,30.30
2019-02-07T05:11:05.390Z,30.30
2019-02-07T05:13:50.088Z,30.40
2019-02-07T05:16:39.769Z,30.40
2019-02-07T05:19:14.204Z,30.40
2019-02-07T05:21:47.880Z,30.40
2019-02-07T05:24:15.778Z,30.50
2019-02-07T05:26:44.322Z,30.50
2019-02-07T05:29:12.165Z,30.60
2019-02-07T05:31:40.157Z,30.60
2019-02-07T05:34:08.017Z,30.70
2019-02-07T05:36:35.988Z,30.50
2019-02-07T05:39:19.592Z,30.60
2019-02-07T05:41:53.254Z,30.70
2019-02-07T05:44:27.035Z,30.60
2019-02-07T05:47:07.198Z,30.50
2019-02-07T05:49:40.930Z,30.70
2019-02-07T05:52:25.705Z,30.80
2019-02-07T05:57:58.040Z,31.30
2019-02-07T06:00:34.722Z,31.40
2019-02-07T06:03:05.349Z,31.50
2019-02-07T06:05:51.591Z,31.50
2019-02-07T06:08:37.735Z,31.50
2019-02-07T06:11:08.635Z,31.60
2019-02-07T06:13:53.701Z,31.80
2019-02-07T06:16:31.014Z,31.70
2019-02-07T06:19:15.579Z,31.80
2019-02-07T06:21:55.713Z,32.00
2019-02-07T06:24:39.020Z,32.40
2019-02-07T06:27:22.244Z,31.80
2019-02-07T06:30:05.165Z,31.80
2019-02-07T06:32:49.835Z,31.70
2019-02-07T06:35:34.693Z,31.70
2019-02-07T06:38:19.131Z,31.40
2019-02-07T06:40:55.868Z,31.20
2019-02-07T06:43:23.924Z,31.20
2019-02-07T06:46:08.734Z,31.30
2019-02-07T06:48:36.684Z,31.30
2019-02-07T06:51:13.778Z,31.30
2019-02-07T06:53:42.029Z,31.10
2019-02-07T06:56:18.995Z,31.20
2019-02-07T06:59:02.129Z,30.90
2019-02-07T07:01:29.981Z,30.90
2019-02-07T07:04:17.055Z,30.90
2019-02-07T07:06:46.506Z,31.40
2019-02-07T07:09:20.157Z,30.70
2019-02-07T07:11:57.200Z,30.70
2019-02-07T07:14:34.037Z,30.70
2019-02-07T07:17:25.383Z,30.70
2019-02-07T07:19:58.993Z,30.70
2019-02-07T07:22:39.067Z,30.50
2019-02-07T07:25:06.926Z,30.50
2019-02-07T07:27:40.853Z,30.50
2019-02-07T07:30:11.505Z,30.40
2019-02-07T07:32:42.582Z,30.20
2019-02-07T07:35:10.522Z,30.20
2019-02-07T07:37:50.462Z,30.70
2019-02-07T07:40:36.950Z,30.00
2019-02-07T07:43:07.917Z,30.00
2019-02-07T07:45:38.681Z,29.80
2019-02-07T07:48:06.551Z,29.90
2019-02-07T07:50:51.161Z,29.80
2019-02-07T07:53:19.183Z,29.70
2019-02-07T07:56:02.476Z,29.60
2019-02-07T07:58:47.281Z,29.60
2019-02-07T08:01:27.489Z,29.80
2019-02-07T08:03:55.464Z,30.00
2019-02-07T08:06:23.406Z,29.90
2019-02-07T08:08:57.141Z,30.20
2019-02-07T08:11:25.005Z,30.40
2019-02-07T08:14:10.007Z,29.80
2019-02-07T08:16:43.787Z,29.70
2019-02-07T08:19:11.750Z,29.60
2019-02-07T08:21:39.689Z,29.50
2019-02-07T08:24:26.013Z,30.00
2019-02-07T08:26:54.564Z,29.40
2019-02-07T08:29:28.245Z,29.50
2019-02-07T08:31:59.157Z,29.40
2019-02-07T08:34:45.428Z,29.30
2019-02-07T08:37:16.028Z,29.20
2019-02-07T08:39:49.937Z,29.20
2019-02-07T08:42:34.490Z,29.10
2019-02-07T08:45:19.385Z,29.10
2019-02-07T08:48:05.903Z,29.10
2019-02-07T08:50:34.169Z,29.00
2019-02-07T08:53:20.507Z,29.00
2019-02-07T08:56:00.770Z,29.00
2019-02-07T08:58:28.616Z,28.90
2019-02-07T09:01:11.406Z,28.90
2019-02-07T09:03:48.051Z,28.90
2019-02-07T09:06:16.006Z,28.80
2019-02-07T09:08:43.858Z,28.80
2019-02-07T09:11:20.844Z,28.90
2019-02-07T09:14:04.132Z,28.90
2019-02-07T09:16:50.848Z,28.80
2019-02-07T09:19:35.411Z,28.80
2019-02-07T09:22:12.240Z,28.70
2019-02-07T09:24:40.087Z,28.70
2019-02-07T09:27:14.169Z,28.70
2019-02-07T09:29:51.126Z,28.70
2019-02-07T09:32:31.192Z,28.90
2019-02-07T09:35:08.216Z,28.90
2019-02-07T09:37:39.602Z,29.00
2019-02-07T09:40:26.000Z,29.00
2019-02-07T09:43:14.458Z,28.90
2019-02-07T09:45:42.716Z,29.00
2019-02-07T09:48:26.006Z,28.90
2019-02-07T09:51:10.510Z,28.80
2019-02-07T09:53:44.602Z,28.70
2019-02-07T09:56:21.982Z,28.70
2019-02-07T09:58:56.290Z,28.70
2019-02-07T10:01:24.131Z,28.70
2019-02-07T10:03:51.997Z,28.60
2019-02-07T10:06:23.094Z,28.60
2019-02-07T10:08:51.089Z,28.60
2019-02-07T10:11:22.073Z,28.70
2019-02-07T10:13:52.980Z,28.60
2019-02-07T10:16:20.815Z,28.60
2019-02-07T10:19:07.117Z,28.60
2019-02-07T10:21:37.915Z,28.60
2019-02-07T10:24:05.867Z,28.60
2019-02-07T10:26:42.626Z,28.60
2019-02-07T10:29:27.160Z,28.50
2019-02-07T10:32:07.323Z,28.50
2019-02-07T10:34:38.009Z,28.60
2019-02-07T10:37:24.439Z,28.50
2019-02-07T10:40:11.063Z,28.50
2019-02-07T10:42:42.074Z,28.60
2019-02-07T10:45:26.726Z,28.60
2019-02-07T10:47:54.766Z,28.60
2019-02-07T10:50:28.734Z,28.40
2019-02-07T10:53:13.313Z,28.50
2019-02-07T10:55:41.666Z,28.40
2019-02-07T10:58:27.911Z,28.40
2019-02-07T11:01:12.820Z,28.50
2019-02-07T11:03:40.685Z,28.60
2019-02-07T11:06:11.734Z,28.70
2019-02-07T11:08:58.075Z,28.70
2019-02-07T11:11:26.021Z,28.80
2019-02-07T11:13:53.885Z,28.70
2019-02-07T11:16:37.643Z,28.70
2019-02-07T11:19:22.337Z,28.70
2019-02-07T11:21:50.194Z,28.60
2019-02-07T11:24:18.161Z,28.60
2019-02-07T11:27:04.587Z,28.60
2019-02-07T11:29:38.583Z,28.60
2019-02-07T11:32:23.461Z,28.50
2019-02-07T11:35:00.624Z,28.60
2019-02-07T11:37:43.674Z,28.50
2019-02-07T11:40:11.628Z,28.50
2019-02-07T11:42:46.058Z,28.50
2019-02-07T11:45:13.911Z,28.50
2019-02-07T11:48:00.105Z,28.40
2019-02-07T11:50:27.962Z,28.40
2019-02-07T11:53:02.157Z,28.20
2019-02-07T11:55:36.397Z,28.20
2019-02-07T11:58:04.287Z,28.20
2019-02-07T12:00:49.937Z,28.20
2019-02-07T12:03:18.276Z,28.30
2019-02-07T12:05:49.016Z,28.20
2019-02-07T12:08:16.863Z,28.30
2019-02-07T12:10:47.530Z,28.30
2019-02-07T12:13:23.577Z,28.30
2019-02-07T12:15:57.480Z,28.40
2019-02-07T12:18:34.324Z,28.80
2019-02-07T12:21:02.284Z,28.30
2019-02-07T12:23:30.218Z,28.40
2019-02-07T12:26:00.931Z,28.40
2019-02-07T12:28:45.699Z,28.40
2019-02-07T12:31:30.696Z,28.40
2019-02-07T12:34:01.551Z,28.60
2019-02-07T12:36:29.888Z,28.80
2019-02-07T12:39:10.374Z,28.90
2019-02-07T12:41:38.244Z,28.90
2019-02-07T12:44:09.249Z,28.80
2019-02-07T12:46:53.964Z,28.70
2019-02-07T12:49:29.206Z,29.20
2019-02-07T12:52:03.669Z,28.60
2019-02-07T12:54:43.910Z,28.60
2019-02-07T12:57:12.199Z,28.60
2019-02-07T12:59:40.141Z,28.50
2019-02-07T13:02:08.005Z,28.60
2019-02-07T13:04:35.865Z,28.60
2019-02-07T13:07:20.679Z,28.60
2019-02-07T13:10:03.832Z,28.70
2019-02-07T13:12:48.635Z,28.70
2019-02-07T13:15:28.677Z,28.60
2019-02-07T13:17:56.644Z,28.50
2019-02-07T13:20:27.920Z,28.50
2019-02-07T13:23:11.165Z,28.50
2019-02-07T13:25:42.103Z,28.50
2019-02-07T13:28:16.411Z,28.50
2019-02-07T13:30:44.368Z,28.50
2019-02-07T13:33:30.541Z,28.50
2019-02-07T13:36:10.655Z,29.00
2019-02-07T13:38:55.208Z,28.50
2019-02-07T13:41:32.217Z,28.50
2019-02-07T13:44:00.198Z,28.60
2019-02-07T13:46:45.943Z,28.60
2019-02-07T13:49:13.957Z,28.60
2019-02-07T13:51:58.916Z,28.80
2019-02-07T13:54:26.786Z,28.80
2019-02-07T13:57:12.927Z,28.80
2019-02-07T13:59:40.900Z,28.90
2019-02-07T14:02:25.449Z,28.90
2019-02-07T14:04:53.709Z,29.20
2019-02-07T14:07:21.653Z,29.00
2019-02-07T14:09:52.259Z,29.00
2019-02-07T14:12:32.482Z,29.10
2019-02-07T14:15:00.364Z,29.20
2019-02-07T14:17:31.812Z,29.20
2019-02-07T14:20:03.674Z,29.20
2019-02-07T14:22:35.463Z,29.10
2019-02-07T14:25:12.319Z,29.10
2019-02-07T14:27:43.015Z,29.00
2019-02-07T14:30:10.887Z,29.00
2019-02-07T14:32:38.825Z,29.00
2019-02-07T14:35:06.712Z,29.00
2019-02-07T14:37:34.654Z,28.90
2019-02-07T14:40:02.524Z,29.00
2019-02-07T14:42:39.523Z,28.90
2019-02-07T14:45:10.385Z,28.90
2019-02-07T14:47:36.449Z,29.00
2019-02-07T14:50:02.507Z,29.50
2019-02-07T14:52:28.466Z,28.90
2019-02-07T14:54:54.537Z,29.00
2019-02-07T14:57:20.478Z,29.00
2019-02-07T14:59:46.418Z,29.00
2019-02-07T15:02:12.695Z,29.00
2019-02-07T15:04:38.758Z,29.00
2019-02-07T15:07:04.725Z,29.50
2019-02-07T15:09:30.764Z,29.00
2019-02-07T15:11:56.747Z,29.00
2019-02-07T15:14:22.807Z,29.10
2019-02-07T15:16:48.857Z,29.10
2019-02-07T15:19:14.799Z,29.00
2019-02-07T15:21:40.759Z,29.10
2019-02-07T15:24:08.540Z,29.00
2019-02-07T15:26:35.008Z,29.00
2019-02-07T15:29:01.046Z,29.30
2019-02-07T15:31:27.049Z,29.10
2019-02-07T15:33:53.089Z,29.20
2019-02-07T15:36:19.362Z,29.20
2019-02-07T15:38:45.392Z,29.50
2019-02-07T15:41:11.361Z,29.70
2019-02-07T15:43:37.814Z,29.80
2019-02-07T15:46:03.853Z,29.90
2019-02-07T15:48:29.932Z,29.80
2019-02-07T15:50:55.968Z,30.00
2019-02-07T15:53:21.935Z,30.00
2019-02-07T15:55:47.983Z,29.90
2019-02-07T15:58:14.046Z,29.80
2019-02-07T16:00:57.058Z,29.70
2019-02-07T16:03:24.939Z,29.60
2019-02-07T16:05:50.989Z,29.70
2019-02-07T16:08:16.949Z,29.60
2019-02-07T16:10:42.927Z,29.50
2019-02-07T16:13:08.863Z,29.50
2019-02-07T16:15:34.818Z,29.50
2019-02-07T16:18:00.764Z,29.60
2019-02-07T16:20:26.916Z,29.70
2019-02-07T16:22:52.854Z,29.80
2019-02-07T16:25:18.814Z,29.70
2019-02-07T16:27:44.766Z,29.70
2019-02-07T16:30:10.848Z,29.70
2019-02-07T16:32:36.890Z,29.70
2019-02-07T16:35:02.846Z,29.90
2019-02-07T16:37:28.803Z,29.90
2019-02-07T16:39:55.310Z,29.90
2019-02-07T16:42:21.370Z,29.90
2019-02-07T16:44:47.436Z,29.80
2019-02-07T16:47:13.494Z,29.80
2019-02-07T16:49:39.565Z,29.80
2019-02-07T16:52:05.631Z,29.70
2019-02-07T16:54:31.700Z,29.70
2019-02-07T16:56:57.760Z,29.70
2019-02-07T16:59:23.799Z,29.60
2019-02-07T17:01:49.762Z,29.60
2019-02-07T17:04:15.711Z,29.60
2019-02-07T17:06:42.097Z,29.50
2019-02-07T17:09:09.940Z,29.70
2019-02-07T17:11:35.888Z,29.70
2019-02-07T17:14:01.844Z,29.80
2019-02-07T17:16:27.820Z,30.00
2019-02-07T17:18:53.872Z,30.00
2019-02-07T17:21:20.220Z,30.10
2019-02-07T17:23:46.190Z,30.70
2019-02-07T17:26:12.239Z,30.20
2019-02-07T17:28:38.186Z,30.40
2019-02-07T17:31:04.125Z,30.20
2019-02-07T17:33:30.218Z,30.20
2019-02-07T17:35:56.378Z,30.80
2019-02-07T17:38:23.389Z,30.20
2019-02-07T17:40:50.299Z,30.20
2019-02-07T17:43:16.720Z,30.30
2019-02-07T17:45:42.669Z,30.30
2019-02-07T17:48:08.646Z,30.30
2019-02-07T17:50:34.696Z,30.20
2019-02-07T17:53:00.761Z,30.30
2019-02-07T17:55:26.809Z,30.20
2019-02-07T17:57:52.784Z,30.30
2019-02-07T18:00:23.776Z,30.20
2019-02-07T18:02:49.714Z,30.30
2019-02-07T18:05:15.672Z,30.20
2019-02-07T18:08:01.509Z,31.00
2019-02-07T18:10:28.677Z,29.60
2019-02-07T18:12:54.928Z,30.10
2019-02-07T18:15:21.184Z,30.00
2019-02-07T18:17:47.130Z,30.00
2019-02-07T18:20:13.088Z,30.00
2019-02-07T18:22:39.058Z,30.00
2019-02-07T18:25:05.124Z,30.00
2019-02-07T18:27:31.193Z,30.00
2019-02-07T18:29:57.240Z,30.20
2019-02-07T18:32:23.296Z,30.10
2019-02-07T18:34:49.232Z,30.10
2019-02-07T18:37:15.506Z,30.20
2019-02-07T18:39:41.567Z,30.10
2019-02-07T18:42:07.650Z,30.20
2019-02-07T18:44:33.679Z,30.30
2019-02-07T18:46:59.666Z,30.40
2019-02-07T18:49:25.734Z,31.30
2019-02-07T18:51:51.707Z,30.70
2019-02-07T18:54:17.769Z,30.80
2019-02-07T18:56:43.768Z,30.80
2019-02-07T18:59:10.142Z,30.70
2019-02-07T19:01:36.289Z,30.70
2019-02-07T19:04:02.384Z,30.70
2019-02-07T19:06:28.955Z,30.70
2019-02-07T19:08:55.031Z,30.40
2019-02-07T19:11:21.064Z,30.90
2019-02-07T19:13:47.048Z,30.90
2019-02-07T19:16:13.307Z,30.90
2019-02-07T19:18:39.344Z,31.00
2019-02-07T19:21:05.360Z,30.90
2019-02-07T19:23:31.416Z,31.00
2019-02-07T19:25:57.482Z,31.00
2019-02-07T19:28:23.527Z,31.10
2019-02-07T19:30:49.500Z,31.70
2019-02-07T19:33:15.563Z,31.10
2019-02-07T19:35:41.609Z,31.20
2019-02-07T19:38:07.562Z,31.40
2019-02-07T19:40:34.014Z,31.50
2019-02-07T19:42:59.989Z,31.50
2019-02-07T19:45:25.960Z,31.70
2019-02-07T19:47:51.918Z,31.70
2019-02-07T19:50:17.975Z,31.70
2019-02-07T19:52:43.933Z,31.90
2019-02-07T19:55:10.036Z,31.50
2019-02-07T19:57:36.111Z,31.40
2019-02-07T20:00:02.135Z,30.30
2019-02-07T20:02:28.592Z,31.40
2019-02-07T20:04:54.573Z,31.40
2019-02-07T20:07:20.623Z,31.70
2019-02-07T20:09:46.572Z,31.30
2019-02-07T20:12:12.637Z,31.30
2019-02-07T20:14:38.617Z,31.40
2019-02-07T20:17:04.779Z,31.50
2019-02-07T20:19:30.823Z,31.50
2019-02-07T20:21:56.890Z,31.70
2019-02-07T20:24:22.922Z,31.60
2019-02-07T20:26:49.178Z,31.70
2019-02-07T20:29:15.136Z,31.80
2019-02-07T20:31:41.083Z,31.90
2019-02-07T20:34:07.124Z,32.00
2019-02-07T20:36:33.228Z,32.10
2019-02-07T20:38:59.267Z,32.30
2019-02-07T20:41:25.215Z,32.20
2019-02-07T20:43:51.262Z,32.20
2019-02-07T20:46:17.315Z,32.20
2019-02-07T20:48:43.360Z,32.20
2019-02-07T20:51:09.613Z,32.80
2019-02-07T20:53:35.679Z,32.30
2019-02-07T20:56:01.719Z,32.20
2019-02-07T20:58:27.861Z,32.10
2019-02-07T21:00:53.917Z,32.00
2019-02-07T21:03:19.973Z,32.70
2019-02-07T21:05:46.033Z,31.80
2019-02-07T21:08:12.079Z,31.80
2019-02-07T21:10:38.167Z,31.80
2019-02-07T21:13:04.724Z,31.90
2019-02-07T21:15:30.772Z,31.90
2019-02-07T21:17:56.725Z,31.90
2019-02-07T21:20:22.821Z,31.90
2019-02-07T21:22:49.020Z,32.00
2019-02-07T21:25:15.050Z,32.00
2019-02-07T21:27:41.024Z,32.00
2019-02-07T21:30:07.058Z,32.00
2019-02-07T21:32:33.109Z,32.00
2019-02-07T21:34:59.377Z,32.00
2019-02-07T21:37:25.641Z,32.20
2019-02-07T21:39:51.661Z,32.10
2019-02-07T21:42:17.616Z,32.00
2019-02-07T21:44:43.578Z,32.10
2019-02-07T21:47:09.644Z,32.20
2019-02-07T21:49:35.707Z,32.00
2019-02-07T21:52:01.762Z,32.20
2019-02-07T21:54:27.716Z,32.20
2019-02-07T21:56:54.008Z,32.30
2019-02-07T21:59:21.157Z,32.90
2019-02-07T22:01:47.124Z,32.20
2019-02-07T22:04:13.069Z,32.20
2019-02-07T22:06:39.130Z,32.30
2019-02-07T22:09:05.200Z,33.00
2019-02-07T22:11:31.274Z,32.20
2019-02-07T22:13:57.508Z,32.20
2019-02-07T22:16:23.674Z,32.30
2019-02-07T22:18:49.654Z,32.30
2019-02-07T22:21:15.706Z,32.30
2019-02-07T22:23:41.647Z,32.30
2019-02-07T22:26:07.608Z,32.30
2019-02-07T22:28:33.680Z,32.50
2019-02-07T22:30:59.738Z,32.40
2019-02-07T22:33:25.808Z,32.50
2019-02-07T22:35:51.765Z,32.40
2019-02-07T22:38:17.828Z,32.40
2019-02-07T22:40:44.170Z,32.30
2019-02-07T22:43:10.105Z,32.40
2019-02-07T22:45:36.057Z,32.40
2019-02-07T22:48:02.009Z,32.50
2019-02-07T22:50:27.979Z,32.50
2019-02-07T22:52:57.058Z,33.20
2019-02-07T22:55:21.796Z,32.70
2019-02-07T22:57:47.878Z,32.70
2019-02-07T23:00:13.838Z,32.60
2019-02-07T23:02:40.002Z,32.60
2019-02-07T23:05:06.052Z,32.60
2019-02-07T23:07:32.012Z,32.70
2019-02-07T23:09:57.957Z,32.70
2019-02-07T23:12:23.927Z,33.40
2019-02-07T23:14:49.986Z,32.70
2019-02-07T23:17:16.035Z,32.70
2019-02-07T23:19:41.986Z,32.80
2019-02-07T23:22:08.053Z,32.70
2019-02-07T23:24:34.008Z,32.80
2019-02-07T23:27:00.087Z,32.70
2019-02-07T23:29:26.141Z,32.70
2019-02-07T23:31:52.117Z,32.70
2019-02-07T23:34:18.180Z,32.70
2019-02-07T23:36:44.260Z,32.70
2019-02-07T23:39:10.306Z,32.70
2019-02-07T23:41:36.246Z,32.90
2019-02-07T23:44:02.489Z,32.80
2019-02-07T23:46:44.965Z,32.80
2019-02-07T23:49:11.014Z,32.80
2019-02-07T23:51:37.041Z,32.80
2019-02-07T23:54:03.139Z,32.80
2019-02-07T23:56:29.134Z,32.80
2019-02-07T23:58:55.080Z,32.80
